Terminal Aerodrome Forecast
Issued by NWS

Current Version | Previous Version | Graphics & Text | Print | Product List | Glossary On
Versions: 1 2 3 4 5 6 7 8 9 10 11 12 13 14
468
FTUS41 KPBZ 202320
TAFHLG
TAF
KHLG 202320Z 2100/2124 21012G20KT P6SM BKN050
     FM210200 20008KT 6SM -RA VCTS BKN025CB
     FM211000 24008KT P6SM BKN015
     FM211700 28012G18KT P6SM BKN035=

USA.gov is the U.S. government's official web portal to all federal, state and local government web resources and services.